Time;durP1;ratioP1;P1;durP2;ratioP2;P2;SDS_P1;SDS_P2;PMS_P1;PMS_P2;Temp;Humidity;BMP_temperature;BMP_pressure;BME280_temperature;BME280_humidity;BME280_pressure;Samples;Min_cycle;Max_cycle;Signal;HPM_P1;HPM_P2
2024/04/11 00:02:01;;;;;;;9.52;2.35;;;;;;;13.81;100.00;102930.91;5634548;26;20009;-73
2024/04/11 00:04:32;;;;;;;8.55;1.98;;;;;;;13.80;100.00;102934.59;5635656;26;20003;-74
2024/04/11 00:07:03;;;;;;;10.20;2.22;;;;;;;13.86;100.00;102932.22;5635570;26;20461;-73
2024/04/11 00:09:34;;;;;;;8.60;2.10;;;;;;;13.78;100.00;102920.38;5633749;26;20014;-74
2024/04/11 00:12:04;;;;;;;10.93;1.88;;;;;;;13.81;100.00;102903.94;5635333;26;20007;-73
2024/04/11 00:14:35;;;;;;;9.45;1.63;;;;;;;13.81;100.00;102910.19;5634649;26;19995;-73
2024/04/11 00:17:06;;;;;;;9.50;2.15;;;;;;;13.81;100.00;102898.53;5636002;26;20353;-73
2024/04/11 00:19:37;;;;;;;10.48;1.95;;;;;;;13.83;100.00;102886.59;5633320;26;20002;-73
2024/04/11 00:22:08;;;;;;;7.18;2.00;;;;;;;13.81;100.00;102887.75;5635798;26;20373;-74
2024/04/11 00:24:39;;;;;;;10.40;2.28;;;;;;;13.86;100.00;102889.03;5634771;26;20027;-73
2024/04/11 00:27:09;;;;;;;10.20;1.70;;;;;;;13.78;100.00;102890.72;5634942;26;20026;-73
2024/04/11 00:29:40;;;;;;;11.65;2.28;;;;;;;13.69;100.00;102881.59;5631548;26;19999;-73
2024/04/11 00:32:11;;;;;;;9.82;1.60;;;;;;;13.67;100.00;102889.84;5635334;26;20005;-73
2024/04/11 00:34:43;;;;;;;25.10;3.08;;;;;;;13.69;100.00;102873.50;5635219;26;19998;-74
2024/04/11 00:37:15;;;;;;;4.38;1.50;;;;;;;13.68;100.00;102888.84;5630559;26;20014;-74
2024/04/11 00:39:46;;;;;;;13.40;1.67;;;;;;;13.66;100.00;102889.97;5632902;26;20009;-73
2024/04/11 00:42:19;;;;;;;11.52;1.95;;;;;;;13.73;100.00;102897.38;5634960;26;20013;-73
2024/04/11 00:44:49;;;;;;;6.90;1.73;;;;;;;13.68;100.00;102896.94;5635563;26;20005;-73
2024/04/11 00:47:20;;;;;;;15.35;2.20;;;;;;;13.66;100.00;102906.16;5633030;26;20428;-74
2024/04/11 00:49:51;;;;;;;7.35;1.52;;;;;;;13.72;100.00;102911.84;5633226;26;19999;-73
2024/04/11 00:52:22;;;;;;;11.60;1.55;;;;;;;13.79;100.00;102909.44;5634875;26;20293;-73
2024/04/11 00:54:52;;;;;;;8.75;2.10;;;;;;;13.71;100.00;102914.69;5634516;26;20010;-73
2024/04/11 00:57:24;;;;;;;15.38;1.85;;;;;;;13.90;100.00;102916.56;5635099;26;20002;-73
2024/04/11 00:59:55;;;;;;;5.28;1.60;;;;;;;13.98;100.00;102919.44;5632807;26;20009;-74
2024/04/11 01:02:26;;;;;;;7.60;2.20;;;;;;;14.03;100.00;102916.34;5633899;26;20068;-73
2024/04/11 01:04:59;;;;;;;7.97;1.92;;;;;;;14.00;100.00;102917.47;5634885;26;20007;-74
2024/04/11 01:07:32;;;;;;;9.10;1.40;;;;;;;14.06;100.00;102919.63;5636115;26;20007;-73
2024/04/11 01:10:07;;;;;;;8.38;1.70;;;;;;;14.04;100.00;102912.66;5631269;26;20009;-74
2024/04/11 01:12:46;;;;;;;8.60;1.80;;;;;;;14.01;100.00;102913.78;5634945;26;20018;-73
2024/04/11 01:15:17;;;;;;;8.10;1.92;;;;;;;14.00;100.00;102912.06;5633825;26;20356;-74
2024/04/11 01:18:06;;;;;;;9.45;1.95;;;;;;;14.04;100.00;102910.78;5631199;26;20004;-74
2024/04/11 01:20:37;;;;;;;6.63;1.40;;;;;;;14.12;100.00;102902.88;5635655;26;20014;-73
2024/04/11 01:23:08;;;;;;;6.68;1.50;;;;;;;14.07;100.00;102906.97;5634370;26;19995;-73
2024/04/11 01:25:39;;;;;;;10.63;1.70;;;;;;;14.15;100.00;102907.97;5635057;26;20005;-74
2024/04/11 01:28:25;;;;;;;10.35;2.80;;;;;;;14.06;100.00;102900.72;5624249;26;19995;-74
2024/04/11 01:30:56;;;;;;;12.20;2.17;;;;;;;14.09;100.00;102900.44;5631958;26;20018;-73
2024/04/11 01:33:27;;;;;;;10.15;2.55;;;;;;;14.10;100.00;102894.03;5635483;26;20067;-73
2024/04/11 01:36:03;;;;;;;9.90;1.67;;;;;;;14.16;100.00;102898.91;5634292;26;20514;-73
2024/04/11 01:38:34;;;;;;;4.18;1.50;;;;;;;14.12;100.00;102886.66;5632280;26;20007;-73
2024/04/11 01:41:04;;;;;;;15.15;2.15;;;;;;;14.12;100.00;102875.03;5633858;26;19999;-73
2024/04/11 01:43:35;;;;;;;10.13;1.73;;;;;;;14.11;100.00;102876.03;5635340;26;20437;-73
2024/04/11 01:46:05;;;;;;;13.98;1.98;;;;;;;14.03;100.00;102878.56;5633681;26;20444;-74
2024/04/11 01:48:37;;;;;;;11.65;1.70;;;;;;;13.99;100.00;102867.19;5632707;26;20003;-75
2024/04/11 01:51:09;;;;;;;13.60;2.17;;;;;;;14.00;100.00;102866.19;5634089;26;20003;-74
2024/04/11 01:53:40;;;;;;;6.68;1.50;;;;;;;13.98;100.00;102881.66;5634553;26;20013;-75
2024/04/11 01:56:11;;;;;;;5.20;1.40;;;;;;;13.96;100.00;102876.44;5631286;26;20031;-73
2024/04/11 01:58:42;;;;;;;9.23;1.70;;;;;;;13.95;100.00;102871.16;5631426;26;19999;-74
2024/04/11 02:01:19;;;;;;;16.67;2.15;;;;;;;13.96;100.00;102886.38;5632565;26;20003;-73
2024/04/11 02:03:50;;;;;;;9.90;1.75;;;;;;;14.00;100.00;102879.69;5628896;26;20012;-74
2024/04/11 02:06:20;;;;;;;8.65;1.55;;;;;;;13.98;100.00;102873.56;5624436;26;20002;-73
2024/04/11 02:08:51;;;;;;;8.60;1.70;;;;;;;13.90;100.00;102874.25;5632861;26;19994;-73
2024/04/11 02:11:23;;;;;;;14.57;2.05;;;;;;;13.94;100.00;102866.75;5634198;26;20003;-73
2024/04/11 02:13:54;;;;;;;9.27;1.50;;;;;;;13.91;100.00;102870.59;5631696;26;20050;-74
2024/04/11 02:16:26;;;;;;;12.35;2.13;;;;;;;13.99;100.00;102883.38;5634415;26;20075;-73
2024/04/11 02:18:56;;;;;;;8.02;1.88;;;;;;;14.00;100.00;102885.06;5631458;26;20010;-73
2024/04/11 02:21:27;;;;;;;5.28;1.33;;;;;;;13.98;100.00;102884.38;5634639;26;19999;-73
2024/04/11 02:23:58;;;;;;;8.40;2.17;;;;;;;13.98;100.00;102896.00;5631791;26;19998;-73
2024/04/11 02:26:29;;;;;;;8.07;1.25;;;;;;;14.01;100.00;102900.28;5635830;26;20003;-73
2024/04/11 02:29:01;;;;;;;13.15;2.10;;;;;;;14.00;100.00;102904.81;5635874;26;19995;-74
2024/04/11 02:31:35;;;;;;;12.00;2.03;;;;;;;14.05;100.00;102906.25;5638127;26;20007;-73
2024/04/11 02:34:06;;;;;;;8.00;1.80;;;;;;;14.00;100.00;102904.81;5637690;26;20006;-73
2024/04/11 02:36:37;;;;;;;8.23;1.70;;;;;;;14.09;100.00;102899.59;5638408;26;20011;-73
2024/04/11 02:39:12;;;;;;;6.85;1.98;;;;;;;14.07;100.00;102902.44;5633239;26;20011;-73
2024/04/11 02:41:43;;;;;;;;;;;;;;;14.11;100.00;102908.41;5639019;26;20369;-74
2024/04/11 02:44:14;;;;;;;7.22;1.48;;;;;;;14.14;100.00;102902.72;5637623;26;19931;-73
2024/04/11 02:46:45;;;;;;;7.80;1.48;;;;;;;14.12;100.00;102913.66;5636192;26;20333;-73
2024/04/11 02:49:16;;;;;;;5.75;1.92;;;;;;;14.17;100.00;102899.75;5635792;26;20010;-73
2024/04/11 02:51:47;;;;;;;7.00;1.42;;;;;;;14.23;100.00;102891.94;5635115;26;19995;-73
2024/04/11 02:54:17;;;;;;;10.73;1.55;;;;;;;14.23;100.00;102889.22;5636371;26;20231;-72
2024/04/11 02:56:48;;;;;;;6.22;1.48;;;;;;;14.28;100.00;102880.72;5635788;26;20010;-72
2024/04/11 02:59:19;;;;;;;13.10;2.25;;;;;;;14.30;100.00;102883.25;5635562;26;20093;-73
2024/04/11 03:01:49;;;;;;;7.05;1.70;;;;;;;14.36;100.00;102874.63;5636700;26;20014;-73
2024/04/11 03:04:21;;;;;;;7.60;1.48;;;;;;;14.36;100.00;102877.31;5624271;26;19991;-73
2024/04/11 03:06:52;;;;;;;14.88;2.25;;;;;;;14.35;100.00;102872.88;5636935;26;20010;-73
2024/04/11 03:09:22;;;;;;;11.00;1.40;;;;;;;14.39;100.00;102874.31;5636014;26;20027;-73
2024/04/11 03:11:53;;;;;;;11.05;1.63;;;;;;;14.44;100.00;102875.59;5636688;26;20017;-73
2024/04/11 03:14:26;;;;;;;7.50;1.17;;;;;;;14.44;100.00;102874.75;5637421;26;20010;-73
2024/04/11 03:16:59;;;;;;;5.32;1.38;;;;;;;14.51;100.00;102889.44;5649115;26;20002;-73
2024/04/11 03:19:30;;;;;;;7.80;1.50;;;;;;;14.56;100.00;102889.84;5634913;26;20444;-73
2024/04/11 03:22:01;;;;;;;11.40;1.52;;;;;;;14.58;100.00;102892.41;5636807;26;20010;-74
2024/04/11 03:24:32;;;;;;;7.07;1.40;;;;;;;14.59;100.00;102884.16;5636969;26;20749;-73
2024/04/11 03:27:03;;;;;;;10.20;1.92;;;;;;;14.58;100.00;102882.44;5636981;26;20007;-73
2024/04/11 03:29:33;;;;;;;9.50;1.50;;;;;;;14.63;100.00;102873.94;5635399;26;20003;-73
2024/04/11 03:32:04;;;;;;;7.00;1.58;;;;;;;14.64;100.00;102878.31;5636687;26;20010;-73
2024/04/11 03:34:36;;;;;;;7.50;1.30;;;;;;;14.70;100.00;102875.88;5637576;26;20620;-73
2024/04/11 03:37:07;;;;;;;14.20;1.67;;;;;;;14.54;100.00;102881.03;5635397;26;20362;-73
2024/04/11 03:39:38;;;;;;;11.80;1.70;;;;;;;14.74;100.00;102865.66;5635535;26;19995;-74
2024/04/11 03:42:08;;;;;;;6.47;1.55;;;;;;;14.85;100.00;102881.69;5636652;26;20011;-73
2024/04/11 03:44:42;;;;;;;8.85;1.50;;;;;;;14.85;100.00;102883.56;5637348;26;20037;-73
2024/04/11 03:47:12;;;;;;;14.13;1.95;;;;;;;14.89;100.00;102876.88;5635721;26;20002;-74
2024/04/11 03:49:43;;;;;;;15.52;1.63;;;;;;;14.97;100.00;102874.31;5633322;26;20106;-73
2024/04/11 03:52:16;;;;;;;15.45;1.95;;;;;;;14.96;100.00;102872.56;5635959;26;20432;-72
2024/04/11 03:54:46;;;;;;;13.30;1.40;;;;;;;14.98;100.00;102868.75;5637014;26;20075;-73
2024/04/11 03:57:17;;;;;;;4.90;1.40;;;;;;;14.93;100.00;102870.19;5635917;26;20691;-73
2024/04/11 03:59:48;;;;;;;8.65;1.50;;;;;;;15.01;100.00;102867.59;5634000;26;20013;-74
2024/04/11 04:02:18;;;;;;;10.55;1.73;;;;;;;14.97;100.00;102874.31;5636915;26;20014;-73
2024/04/11 04:04:49;;;;;;;10.05;1.00;;;;;;;14.90;100.00;102873.16;5636056;26;20162;-74
2024/04/11 04:07:19;;;;;;;5.38;1.30;;;;;;;14.83;100.00;102866.66;5636951;26;20002;-73
2024/04/11 04:09:52;;;;;;;5.13;1.40;;;;;;;14.91;100.00;102870.34;5634197;26;20010;-73
2024/04/11 04:12:23;;;;;;;9.02;1.88;;;;;;;14.87;100.00;102870.75;5636742;26;19999;-73
2024/04/11 04:14:53;;;;;;;13.45;1.70;;;;;;;14.86;100.00;102874.44;5635544;26;19995;-73
2024/04/11 04:17:27;;;;;;;7.85;1.33;;;;;;;14.86;100.00;102869.03;5636563;26;19999;-73
2024/04/11 04:19:57;;;;;;;6.60;1.10;;;;;;;14.78;100.00;102867.06;5633763;26;20003;-73
2024/04/11 04:22:28;;;;;;;4.03;1.67;;;;;;;14.78;100.00;102861.66;5636646;26;20349;-73
2024/04/11 04:24:59;;;;;;;7.55;1.70;;;;;;;14.79;100.00;102871.47;5634918;26;20006;-74
2024/04/11 04:27:31;;;;;;;8.90;1.70;;;;;;;14.79;100.00;102871.47;5636674;26;19998;-73
2024/04/11 04:30:09;;;;;;;14.30;1.85;;;;;;;14.75;100.00;102862.78;5634087;26;19999;-73
2024/04/11 04:32:40;;;;;;;13.32;1.77;;;;;;;14.81;100.00;102863.22;5635512;26;20071;-72
2024/04/11 04:35:12;;;;;;;5.82;1.30;;;;;;;14.85;100.00;102851.97;5635429;26;20017;-73
2024/04/11 04:37:43;;;;;;;10.40;1.60;;;;;;;14.85;100.00;102860.06;5636760;26;20483;-74
2024/04/11 04:40:14;;;;;;;7.13;1.50;;;;;;;14.84;100.00;102852.13;5634073;26;19995;-73
2024/04/11 04:42:44;;;;;;;12.18;1.75;;;;;;;14.79;100.00;102841.75;5636319;26;20074;-74
2024/04/11 04:45:15;;;;;;;8.93;1.88;;;;;;;14.74;100.00;102849.44;5633577;26;20025;-73
2024/04/11 04:47:47;;;;;;;8.55;1.83;;;;;;;14.70;100.00;102843.47;5635741;26;20500;-73
2024/04/11 04:50:17;;;;;;;8.55;1.48;;;;;;;14.83;100.00;102853.97;5633677;26;20052;-73
2024/04/11 04:52:48;;;;;;;6.88;1.38;;;;;;;14.87;100.00;102857.25;5627557;26;20398;-73
2024/04/11 04:55:18;;;;;;;9.18;1.30;;;;;;;14.82;100.00;102857.69;5633826;26;20005;-73
2024/04/11 04:57:49;;;;;;;5.75;1.48;;;;;;;14.82;100.00;102863.09;5627458;26;20005;-74
2024/04/11 05:00:24;;;;;;;8.60;1.98;;;;;;;14.83;100.00;102851.28;5633325;26;20078;-72
2024/04/11 05:02:55;;;;;;;7.88;1.92;;;;;;;14.86;100.00;102839.31;5635312;26;20145;-75
2024/04/11 05:05:27;;;;;;;9.68;1.83;;;;;;;14.86;100.00;102850.13;5636409;26;20075;-73
2024/04/11 05:08:00;;;;;;;11.60;1.48;;;;;;;14.78;100.00;102845.47;5631231;26;20026;-74
2024/04/11 05:10:34;;;;;;;5.18;1.40;;;;;;;14.82;100.00;102849.59;5635102;26;20009;-73
2024/04/11 05:13:09;;;;;;;11.27;1.95;;;;;;;14.80;100.00;102851.56;5634279;26;20020;-73
2024/04/11 05:15:40;;;;;;;12.40;1.85;;;;;;;14.84;100.00;102849.44;5636131;26;19999;-73
2024/04/11 05:18:10;;;;;;;12.00;2.15;;;;;;;14.86;100.00;102852.81;5633900;26;20011;-73
2024/04/11 05:20:42;;;;;;;4.75;1.38;;;;;;;14.81;100.00;102844.31;5635797;26;20002;-73
2024/04/11 05:23:14;;;;;;;5.43;1.30;;;;;;;14.82;100.00;102846.03;5634248;26;20014;-73
2024/04/11 05:25:46;;;;;;;9.10;1.58;;;;;;;14.84;100.00;102844.88;5636092;26;19994;-73
2024/04/11 05:28:17;;;;;;;8.25;1.65;;;;;;;14.82;100.00;102844.19;5633286;26;20449;-73
2024/04/11 05:30:48;;;;;;;9.50;1.70;;;;;;;14.73;100.00;102839.63;5635361;26;20003;-74
2024/04/11 05:33:19;;;;;;;5.70;1.52;;;;;;;14.67;100.00;102829.44;5634882;26;20003;-73
2024/04/11 05:35:49;;;;;;;8.60;1.58;;;;;;;14.68;100.00;102836.53;5635058;26;20010;-73
2024/04/11 05:38:20;;;;;;;11.35;1.50;;;;;;;14.80;100.00;102848.00;5623928;26;20321;-74
2024/04/11 05:40:52;;;;;;;9.43;1.60;;;;;;;14.76;100.00;102845.63;5631682;26;19999;-75
2024/04/11 05:43:22;;;;;;;7.40;1.60;;;;;;;14.79;100.00;102851.72;5634853;26;20017;-73
2024/04/11 05:45:57;;;;;;;9.60;1.60;;;;;;;14.85;100.00;102862.78;5635033;26;19991;-75
2024/04/11 05:48:27;;;;;;;9.07;1.53;;;;;;;14.81;100.00;102868.63;5623226;26;20018;-73
2024/04/11 05:50:58;;;;;;;6.70;1.65;;;;;;;14.84;100.00;102873.75;5634323;26;19998;-74
2024/04/11 05:53:29;;;;;;;11.23;2.00;;;;;;;14.82;100.00;102873.06;5635554;26;20014;-73
2024/04/11 05:55:59;;;;;;;7.35;1.70;;;;;;;14.87;100.00;102878.88;5635190;26;20002;-73
2024/04/11 05:58:31;;;;;;;6.90;2.05;;;;;;;14.85;100.00;102880.84;5631562;26;20394;-73
2024/04/11 06:01:05;;;;;;;6.78;1.40;;;;;;;14.85;100.00;102895.22;5631807;26;20459;-73
2024/04/11 06:03:46;;;;;;;10.27;1.73;;;;;;;14.88;100.00;102897.63;5623931;26;20076;-73
2024/04/11 06:06:19;;;;;;;6.22;1.55;;;;;;;14.96;100.00;102899.59;5619433;26;20063;-73
2024/04/11 06:08:54;;;;;;;9.32;1.98;;;;;;;14.99;100.00;102907.44;5633489;26;20675;-73
2024/04/11 06:11:25;;;;;;;13.20;2.15;;;;;;;15.07;100.00;102912.13;5628879;26;20003;-73
2024/04/11 06:13:56;;;;;;;4.07;1.10;;;;;;;15.09;100.00;102927.19;5634361;26;20014;-73
2024/04/11 06:16:26;;;;;;;7.43;1.35;;;;;;;15.16;100.00;102927.44;5630869;26;20380;-74
2024/04/11 06:18:57;;;;;;;8.82;1.50;;;;;;;15.19;100.00;102925.31;5632520;26;20002;-73
2024/04/11 06:21:36;;;;;;;8.20;1.38;;;;;;;15.21;100.00;102944.06;5634698;26;19999;-73
2024/04/11 06:24:08;;;;;;;5.47;1.50;;;;;;;15.25;100.00;102940.94;5634416;26;20017;-74
2024/04/11 06:26:39;;;;;;;5.75;1.50;;;;;;;15.25;100.00;102943.63;5634996;26;20766;-73
2024/04/11 06:29:12;;;;;;;6.13;1.42;;;;;;;15.32;100.00;102946.63;5628798;26;20003;-73
2024/04/11 06:31:43;;;;;;;7.75;1.58;;;;;;;15.43;100.00;102953.72;5626234;26;20022;-73
2024/04/11 06:34:14;;;;;;;7.55;1.58;;;;;;;15.49;100.00;102948.56;5633827;26;20017;-73
2024/04/11 06:36:49;;;;;;;5.53;2.08;;;;;;;15.50;100.00;102950.25;5634500;26;20017;-73
2024/04/11 06:39:19;;;;;;;8.10;2.00;;;;;;;15.57;100.00;102950.53;5618405;26;20013;-73
2024/04/11 06:41:51;;;;;;;9.73;1.98;;;;;;;15.59;100.00;102951.22;5620861;26;19999;-73
2024/04/11 06:44:22;;;;;;;9.25;1.20;;;;;;;15.58;100.00;102940.56;5630207;26;20431;-73
2024/04/11 06:46:52;;;;;;;9.32;2.00;;;;;;;15.57;100.00;102949.69;5631846;26;19999;-73
2024/04/11 06:49:23;;;;;;;8.30;1.80;;;;;;;15.63;100.00;102949.97;5629388;26;20325;-74
2024/04/11 06:51:53;;;;;;;3.47;1.40;;;;;;;15.65;100.00;102956.06;5630965;26;20006;-73
2024/04/11 06:54:26;;;;;;;9.32;1.80;;;;;;;15.73;100.00;102949.94;5628997;26;20526;-73
2024/04/11 06:56:58;;;;;;;5.93;1.55;;;;;;;15.81;100.00;102950.03;5630678;26;19999;-73
2024/04/11 06:59:28;;;;;;;6.63;1.60;;;;;;;15.72;100.00;102951.78;5614807;26;19998;-73
2024/04/11 07:02:00;;;;;;;8.82;1.90;;;;;;;15.73;100.00;102944.53;5630672;26;20003;-74
2024/04/11 07:04:32;;;;;;;5.43;1.77;;;;;;;15.73;100.00;102945.38;5631003;26;20003;-73
2024/04/11 07:07:08;;;;;;;7.78;1.77;;;;;;;15.66;100.00;102944.28;5630036;26;20019;-74
2024/04/11 07:09:38;;;;;;;6.25;2.03;;;;;;;15.79;100.00;102950.19;5626884;26;20015;-73
2024/04/11 07:12:10;;;;;;;10.02;2.05;;;;;;;15.85;100.00;102958.69;5630720;26;20017;-73
2024/04/11 07:14:41;;;;;;;5.93;1.80;;;;;;;15.83;100.00;102950.75;5632755;26;20011;-73
2024/04/11 07:17:12;;;;;;;7.28;1.92;;;;;;;15.88;100.00;102956.56;5633251;26;20340;-73
2024/04/11 07:19:42;;;;;;;7.88;1.67;;;;;;;15.86;100.00;102955.84;5630381;26;20010;-73
2024/04/11 07:22:18;;;;;;;10.18;2.03;;;;;;;15.94;100.00;102960.50;5633748;26;20009;-73
2024/04/11 07:24:48;;;;;;;10.77;2.60;;;;;;;16.03;100.00;102957.75;5634913;26;20017;-73
2024/04/11 07:27:19;;;;;;;5.90;2.30;;;;;;;15.94;100.00;102953.25;5634025;26;20677;-73
2024/04/11 07:29:49;;;;;;;7.95;2.22;;;;;;;15.94;100.00;102952.38;5631963;26;19998;-73
2024/04/11 07:32:21;;;;;;;9.90;2.35;;;;;;;15.97;100.00;102960.22;5633658;26;19998;-75
2024/04/11 07:34:51;;;;;;;9.55;2.40;;;;;;;16.01;100.00;102961.59;5634552;26;20042;-73
2024/04/11 07:37:25;;;;;;;6.82;1.50;;;;;;;15.84;100.00;102959.72;5631838;26;20440;-73
2024/04/11 07:40:00;;;;;;;15.10;2.20;;;;;;;15.90;100.00;102973.47;5629736;26;19991;-73
2024/04/11 07:42:55;;;;;;;11.25;2.40;;;;;;;15.92;100.00;102974.22;5631384;26;20038;-74
2024/04/11 07:45:30;;;;;;;13.88;2.13;;;;;;;15.94;100.00;102976.75;5631107;26;20017;-73
2024/04/11 07:48:04;;;;;;;10.80;2.03;;;;;;;15.97;100.00;102993.56;5629371;26;20006;-73
2024/04/11 07:50:35;;;;;;;10.98;2.10;;;;;;;16.03;100.00;102992.94;5631635;26;20050;-74
2024/04/11 07:53:07;;;;;;;8.65;2.15;;;;;;;15.98;100.00;102989.84;5633484;26;20054;-74
2024/04/11 07:55:37;;;;;;;10.35;2.30;;;;;;;15.99;100.00;102987.97;5634492;26;20003;-74
2024/04/11 07:58:08;;;;;;;9.55;2.20;;;;;;;15.99;100.00;102996.09;5632721;26;19995;-74
2024/04/11 08:00:39;;;;;;;6.63;2.65;;;;;;;15.96;100.00;102997.25;5633098;26;20075;-74
2024/04/11 08:03:09;;;;;;;4.80;2.08;;;;;;;15.89;100.00;103003.41;5633722;26;20002;-74
2024/04/11 08:05:44;;;;;;;20.45;2.92;;;;;;;15.84;100.00;103003.00;5633979;26;20772;-75
2024/04/11 08:08:19;;;;;;;10.43;2.53;;;;;;;15.73;100.00;103021.13;5634182;26;20014;-74
2024/04/11 08:10:50;;;;;;;10.63;2.90;;;;;;;15.68;100.00;103018.03;5631924;26;20783;-74
2024/04/11 08:13:22;;;;;;;9.43;1.80;;;;;;;15.66;100.00;103022.75;5630390;26;19999;-75
2024/04/11 08:15:53;;;;;;;11.05;2.30;;;;;;;15.63;100.00;103027.56;5632377;26;20132;-75
2024/04/11 08:18:27;;;;;;;5.05;2.30;;;;;;;15.59;100.00;103029.69;5630773;26;20003;-74
2024/04/11 08:20:57;;;;;;;10.18;2.63;;;;;;;15.50;100.00;103031.41;5630928;26;19999;-75
2024/04/11 08:23:29;;;;;;;8.45;2.85;;;;;;;15.50;100.00;103033.25;5631944;26;20013;-74
2024/04/11 08:26:00;;;;;;;9.80;2.65;;;;;;;15.45;100.00;103032.84;5629922;26;19999;-75
2024/04/11 08:28:31;;;;;;;10.30;2.50;;;;;;;15.33;100.00;103029.47;5629948;26;19995;-74
2024/04/11 08:31:02;;;;;;;12.02;3.58;;;;;;;15.41;100.00;103039.53;5631149;26;20010;-75
2024/04/11 08:33:33;;;;;;;7.65;2.75;;;;;;;15.39;100.00;103042.41;5632376;26;20003;-75
2024/04/11 08:36:05;;;;;;;18.27;3.28;;;;;;;15.38;100.00;103047.97;5631877;26;20053;-75
2024/04/11 08:38:40;;;;;;;13.60;2.78;;;;;;;15.36;100.00;103055.34;5630391;26;20514;-76
2024/04/11 08:41:12;;;;;;;;;;;;;;;15.35;100.00;103053.66;5631340;26;20056;-74
2024/04/11 08:43:50;;;;;;;13.50;2.92;;;;;;;15.38;100.00;103058.78;5632680;26;20035;-75
2024/04/11 08:46:22;;;;;;;7.18;3.30;;;;;;;15.32;100.00;103060.22;5629200;26;19998;-74
2024/04/11 08:48:53;;;;;;;14.90;3.85;;;;;;;15.30;100.00;103054.06;5629303;26;19995;-75
2024/04/11 08:51:24;;;;;;;10.75;3.40;;;;;;;15.24;100.00;103058.22;5629330;26;22645;-75
2024/04/11 08:53:54;;;;;;;8.90;3.20;;;;;;;15.29;100.00;103058.63;5631191;26;19999;-75
2024/04/11 08:56:27;;;;;;;12.48;3.08;;;;;;;15.19;100.00;103055.09;5622424;26;20463;-75
2024/04/11 08:58:58;;;;;;;8.98;3.50;;;;;;;15.35;100.00;103050.94;5628626;26;20405;-75
2024/04/11 09:01:30;;;;;;;17.98;3.75;;;;;;;15.37;100.00;103067.91;5629817;26;20032;-75
2024/04/11 09:04:02;;;;;;;13.48;3.22;;;;;;;15.31;100.00;103069.31;5630686;26;20023;-75
2024/04/11 09:06:33;;;;;;;10.55;3.60;;;;;;;15.33;100.00;103067.31;5623458;26;20332;-75
2024/04/11 09:09:10;;;;;;;11.05;3.78;;;;;;;15.37;100.00;103071.44;5628096;26;19994;-75
2024/04/11 09:11:42;;;;;;;11.10;3.60;;;;;;;15.35;100.00;103069.88;5626684;26;20017;-75
2024/04/11 09:14:16;;;;;;;10.50;3.38;;;;;;;15.42;100.00;103073.72;5626311;26;20027;-75
2024/04/11 09:17:00;;;;;;;10.98;3.42;;;;;;;15.38;100.00;103089.38;5631135;26;20079;-75
2024/04/11 09:19:39;;;;;;;18.58;3.45;;;;;;;15.47;100.00;103093.94;5625275;26;20013;-75
2024/04/11 09:22:12;;;;;;;12.45;3.95;;;;;;;15.48;100.00;103098.34;5630452;26;20465;-75
2024/04/11 09:24:44;;;;;;;18.95;4.32;;;;;;;15.58;100.00;103098.34;5631106;26;19999;-74
2024/04/11 09:27:16;;;;;;;13.57;3.50;;;;;;;15.60;100.00;103090.91;5628584;26;20002;-75
2024/04/11 09:29:47;;;;;;;14.27;3.72;;;;;;;15.62;100.00;103097.06;5628399;26;20003;-74
2024/04/11 09:32:21;;;;;;;12.88;3.72;;;;;;;15.63;100.00;103089.78;5627638;26;20372;-75
2024/04/11 09:34:53;;;;;;;13.93;4.15;;;;;;;15.67;100.00;103100.22;5613220;26;20032;-75
2024/04/11 09:37:27;;;;;;;8.15;3.40;;;;;;;15.69;100.00;103100.06;5601143;26;19999;-75
2024/04/11 09:40:11;;;;;;;12.20;3.45;;;;;;;15.81;100.00;103115.09;5603067;26;20753;-75
2024/04/11 09:42:43;;;;;;;14.07;3.95;;;;;;;15.76;100.00;103107.47;5626982;26;20003;-74
2024/04/11 09:45:18;;;;;;;17.40;4.25;;;;;;;15.93;100.00;103111.25;5624094;26;20011;-74
2024/04/11 09:47:51;;;;;;;14.00;4.30;;;;;;;15.99;100.00;103109.81;5608958;26;20654;-75
2024/04/11 09:50:24;;;;;;;6.90;3.60;;;;;;;16.16;100.00;103113.59;5603041;26;20003;-74
2024/04/11 09:52:58;;;;;;;14.43;3.25;;;;;;;16.40;100.00;103116.63;5619839;26;20719;-75
2024/04/11 09:55:36;;;;;;;7.25;3.25;;;;;;;16.55;100.00;103122.41;5621108;26;20021;-74
2024/04/11 09:58:07;;;;;;;10.23;3.60;;;;;;;16.47;100.00;103111.47;5614265;26;20030;-75
2024/04/11 10:00:48;;;;;;;15.27;3.58;;;;;;;16.67;100.00;103110.38;5618954;26;19999;-75
2024/04/11 10:03:19;;;;;;;9.57;3.42;;;;;;;17.00;100.00;103098.03;5625201;26;20068;-75
2024/04/11 10:05:50;;;;;;;10.20;3.35;;;;;;;17.17;100.00;103099.06;5630560;26;20007;-75
2024/04/11 10:08:33;;;;;;;6.45;3.30;;;;;;;17.29;100.00;103105.09;5621632;26;19999;-74
2024/04/11 10:11:08;;;;;;;8.82;3.10;;;;;;;17.44;100.00;103103.53;5620429;26;20079;-75
2024/04/11 10:13:42;;;;;;;6.47;3.13;;;;;;;17.53;100.00;103110.75;5629884;26;20336;-74
2024/04/11 10:16:29;;;;;;;11.77;2.93;;;;;;;17.63;100.00;103116.06;5626598;26;20046;-73
2024/04/11 10:19:04;;;;;;;20.17;3.33;;;;;;;17.72;100.00;103120.56;5621422;26;20340;-73
2024/04/11 10:21:38;;;;;;;15.30;3.47;;;;;;;17.40;100.00;103112.16;5616669;26;20009;-73
2024/04/11 10:24:14;;;;;;;6.90;3.17;;;;;;;17.44;100.00;103127.13;5626738;26;20522;-72
2024/04/11 10:26:47;;;;;;;13.13;3.45;;;;;;;17.51;100.00;103137.16;5608043;26;20017;-73
2024/04/11 10:29:19;;;;;;;7.88;3.50;;;;;;;17.67;100.00;103141.91;5625157;26;20398;-73
2024/04/11 10:31:56;;;;;;;10.68;3.60;;;;;;;17.82;100.00;103147.63;5620997;26;20017;-73
2024/04/11 10:34:37;;;;;;;9.45;3.63;;;;;;;17.66;100.00;103147.47;5621312;26;20373;-74
2024/04/11 10:37:07;;;;;;;8.23;3.30;;;;;;;17.50;100.00;103156.31;5627397;26;20021;-74
2024/04/11 10:39:39;;;;;;;15.45;3.65;;;;;;;17.45;100.00;103156.78;5625175;26;20323;-74
2024/04/11 10:42:12;;;;;;;8.30;3.30;;;;;;;17.34;100.00;103147.03;5623503;26;20390;-73
2024/04/11 10:44:43;;;;;;;10.18;3.22;;;;;;;17.32;100.00;103149.06;5625741;26;20036;-74
2024/04/11 10:47:17;;;;;;;12.35;4.03;;;;;;;17.27;100.00;103142.38;5628262;26;20011;-74
2024/04/11 10:49:51;;;;;;;7.50;3.15;;;;;;;17.13;100.00;103149.19;5614857;26;20015;-75
2024/04/11 10:52:24;;;;;;;6.15;3.13;;;;;;;17.27;100.00;103145.97;5631267;26;20011;-74
2024/04/11 10:55:12;;;;;;;10.52;3.20;;;;;;;17.58;100.00;103164.56;5629286;26;20002;-74
2024/04/11 10:57:44;;;;;;;7.45;3.58;;;;;;;17.77;100.00;103167.13;5621000;26;20003;-74
2024/04/11 11:00:38;;;;;;;6.70;3.40;;;;;;;17.88;100.00;103157.03;5618893;26;20014;-75
2024/04/11 11:03:14;;;;;;;11.75;3.53;;;;;;;17.87;100.00;103164.28;5606357;26;20376;-74
2024/04/11 11:05:44;;;;;;;10.95;3.63;;;;;;;17.66;100.00;103164.59;5614503;26;19995;-74
2024/04/11 11:08:15;;;;;;;6.15;3.05;;;;;;;17.75;100.00;103157.41;5616157;26;20067;-75
2024/04/11 11:10:46;;;;;;;13.55;4.10;;;;;;;17.77;100.00;103153.56;5611451;26;20009;-74
2024/04/11 11:13:17;;;;;;;10.05;3.28;;;;;;;17.86;100.00;103159.88;5616281;26;20072;-74
2024/04/11 11:15:47;;;;;;;16.70;7.45;;;;;;;17.98;100.00;103145.03;5623991;26;20395;-74
2024/04/11 11:18:20;;;;;;;18.75;10.50;;;;;;;18.10;100.00;103149.19;5624756;26;20009;-74
2024/04/11 11:20:50;;;;;;;9.40;3.28;;;;;;;18.26;100.00;103148.41;5628903;26;20317;-74
2024/04/11 11:23:26;;;;;;;10.00;3.65;;;;;;;18.34;100.00;103150.34;5622795;26;20014;-74
2024/04/11 11:25:57;;;;;;;9.80;3.38;;;;;;;18.39;100.00;103145.28;5628877;26;20039;-74
2024/04/11 11:28:28;;;;;;;10.57;4.10;;;;;;;18.38;100.00;103139.00;5626553;26;20067;-75
2024/04/11 11:31:00;;;;;;;12.85;4.03;;;;;;;18.34;100.00;103148.47;5628148;26;20950;-75
2024/04/11 11:33:31;;;;;;;10.13;4.03;;;;;;;18.30;100.00;103148.97;5628226;26;20096;-75
2024/04/11 11:36:01;;;;;;;13.20;4.85;;;;;;;18.28;100.00;103156.44;5621692;26;19999;-75
2024/04/11 11:38:35;;;;;;;11.82;6.57;;;;;;;18.26;100.00;103155.72;5625317;26;20057;-74